EmailTwitter


Observations de surface / France / LFBO (07630)

Régions: Québec | Canada | États-Unis | Europe | France | UK | Ailleurs
Station
Affichage
Infos & localisation pour LFBO (07630) | Aide pour décoder les METARs

Observations prises le 2020-05-31 à 00H00 UTC à TOULOUSE/BLAGNAC, FR (LFBO)

Température: 17.0 Celsius

Point de rosée: 12.0 Celsius

Humidité relative: 72%

Vents: Sud-sud-est à 11 km/h ou 6 noeuds.

Pression au niveau moyen de la mer: 101.30 kilopascals.

Observation METAR:

LFBO 310000Z AUTO 16006KT CAVOK 17/12 Q1013 NOSIG=